Time;durP1;ratioP1;P1;durP2;ratioP2;P2;SDS_P1;SDS_P2;PMS_P1;PMS_P2;Temp;Humidity;BMP_temperature;BMP_pressure;BME280_temperature;BME280_humidity;BME280_pressure;Samples;Min_cycle;Max_cycle;Signal;HPM_P1;HPM_P2
2023/04/06 00:01:21;;;;;;;29.13;11.88;;;;;;;3.12;100.00;101780.63;6137774;23;20035;-71
2023/04/06 00:03:47;;;;;;;26.33;12.20;;;;;;;3.04;100.00;101782.50;6190786;23;20024;-68
2023/04/06 00:06:12;;;;;;;28.08;12.93;;;;;;;3.07;98.48;101774.56;6189056;23;20781;-71
2023/04/06 00:08:38;;;;;;;35.85;12.95;;;;;;;3.05;100.00;101774.56;6188500;23;20020;-71
2023/04/06 00:11:03;;;;;;;28.83;11.85;;;;;;;2.99;100.00;101769.41;6190353;23;20636;-68
2023/04/06 00:13:29;;;;;;;26.95;11.75;;;;;;;2.89;100.00;101769.59;6190701;23;20084;-69
2023/04/06 00:16:09;;;;;;;33.95;14.02;;;;;;;2.62;100.00;101776.19;6192440;23;20557;-69
2023/04/06 00:18:35;;;;;;;28.27;13.25;;;;;;;2.38;100.00;101764.25;6190745;23;20027;-70
2023/04/06 00:21:01;;;;;;;28.48;11.77;;;;;;;2.28;100.00;101774.03;6189385;23;20017;-70
2023/04/06 00:23:26;;;;;;;25.83;11.95;;;;;;;2.21;100.00;101768.00;6189032;23;20028;-71
2023/04/06 00:25:52;;;;;;;25.45;11.55;;;;;;;2.19;100.00;101761.88;6190756;23;20091;-70
2023/04/06 00:28:17;;;;;;;31.52;11.63;;;;;;;2.20;100.00;101760.09;6189752;23;20399;-68
2023/04/06 00:30:43;;;;;;;35.35;13.05;;;;;;;2.27;100.00;101752.13;6188664;23;20012;-70
2023/04/06 00:33:08;;;;;;;31.95;14.05;;;;;;;2.50;100.00;101753.53;6188617;23;20021;-70
2023/04/06 00:35:34;;;;;;;28.35;12.07;;;;;;;2.42;100.00;101742.25;6162982;23;20020;-69
2023/04/06 00:37:59;;;;;;;30.48;11.95;;;;;;;2.17;100.00;101754.91;6163624;23;20020;-70
2023/04/06 00:40:27;;;;;;;24.85;12.48;;;;;;;2.34;100.00;101737.09;6162360;23;20079;-71
2023/04/06 00:42:52;;;;;;;38.70;14.38;;;;;;;2.44;100.00;101738.69;6189005;23;20403;-69
2023/04/06 00:45:18;;;;;;;23.67;11.40;;;;;;;2.38;100.00;101740.56;6189355;23;20017;-71
2023/04/06 00:47:44;;;;;;;26.10;12.90;;;;;;;2.21;100.00;101748.69;6189266;23;20781;-69
2023/04/06 00:50:09;;;;;;;37.97;14.48;;;;;;;2.32;100.00;101741.53;6188849;23;20012;-69
2023/04/06 00:52:35;;;;;;;26.58;11.60;;;;;;;2.06;100.00;101740.16;6190282;23;20013;-70
2023/04/06 00:55:02;;;;;;;32.20;13.45;;;;;;;2.30;100.00;101740.66;6162349;23;20911;-70
2023/04/06 00:57:28;;;;;;;23.90;11.52;;;;;;;2.02;100.00;101738.44;6164516;23;20020;-70
2023/04/06 00:59:55;;;;;;;23.17;11.48;;;;;;;1.86;100.00;101730.75;6191005;23;20016;-70
2023/04/06 01:02:21;;;;;;;24.55;11.88;;;;;;;1.90;100.00;101740.34;6190221;23;20852;-71
2023/04/06 01:04:51;;;;;;;26.40;11.38;;;;;;;1.92;100.00;101730.69;6160891;22;20276;-78
2023/04/06 01:07:27;;;;;;;32.58;13.20;;;;;;;2.04;100.00;101727.88;6162861;23;20017;-78
2023/04/06 01:10:06;;;;;;;33.13;12.52;;;;;;;2.08;100.00;101721.69;6158045;23;20044;-78
2023/04/06 01:12:38;;;;;;;29.13;12.75;;;;;;;1.90;100.00;101720.19;6160078;23;20005;-77
2023/04/06 01:15:10;;;;;;;30.25;12.13;;;;;;;2.05;100.00;101714.72;6134068;23;20017;-77
2023/04/06 01:17:38;;;;;;;32.08;14.98;;;;;;;2.21;100.00;101706.59;6161813;23;20020;-78
2023/04/06 01:20:10;;;;;;;30.50;13.80;;;;;;;2.21;100.00;101706.59;6139169;23;20100;-77
2023/04/06 01:22:36;;;;;;;30.75;14.75;;;;;;;2.27;100.00;101707.38;6162291;23;20017;-78
2023/04/06 01:25:03;;;;;;;32.22;13.63;;;;;;;2.24;100.00;101703.94;6163243;23;20107;-78
2023/04/06 01:27:39;;;;;;;29.88;13.27;;;;;;;2.14;100.00;101708.44;6138926;23;20040;-75
2023/04/06 01:30:11;;;;;;;23.17;10.13;;;;;;;2.02;100.00;101698.13;6173030;23;20021;-78
2023/04/06 01:32:47;;;;;;;26.35;13.48;;;;;;;2.03;100.00;101694.59;6161523;23;20017;-77
2023/04/06 01:35:19;;;;;;;36.42;14.00;;;;;;;1.81;100.00;101704.56;6161306;23;20020;-78
2023/04/06 01:37:55;;;;;;;28.92;14.07;;;;;;;1.69;100.00;101696.81;6162268;23;20119;-78
2023/04/06 01:40:27;;;;;;;31.05;14.10;;;;;;;1.54;100.00;101693.47;6162449;23;20331;-76
2023/04/06 01:42:53;;;;;;;37.90;14.98;;;;;;;1.52;100.00;101690.00;6159983;23;20016;-77
2023/04/06 01:45:27;;;;;;;31.45;14.52;;;;;;;1.53;100.00;101693.50;6162480;23;20020;-77
2023/04/06 01:47:58;;;;;;;35.50;13.93;;;;;;;1.66;100.00;101692.47;6161484;23;20024;-76
2023/04/06 01:50:26;;;;;;;33.50;14.93;;;;;;;1.96;100.00;101680.66;6158119;23;20013;-75
2023/04/06 01:52:52;;;;;;;28.52;13.23;;;;;;;1.99;100.00;101679.75;6159084;23;20017;-75
2023/04/06 01:55:17;;;;;;;28.08;12.15;;;;;;;1.89;100.00;101683.41;6135217;23;20111;-78
2023/04/06 01:58:00;;;;;;;;;;;;;;;1.80;100.00;101684.38;6163738;23;20013;-76
2023/04/06 02:00:33;;;;;;;28.50;14.07;;;;;;;2.03;100.00;101673.56;6164372;23;19935;-76
2023/04/06 02:03:01;;;;;;;27.10;12.05;;;;;;;1.81;100.00;101686.16;6165885;23;20013;-78
2023/04/06 02:05:30;;;;;;;30.50;13.10;;;;;;;1.75;100.00;101678.31;6159747;23;20043;-76
2023/04/06 02:07:57;;;;;;;25.55;11.75;;;;;;;1.70;100.00;101678.38;6162119;23;20013;-75
2023/04/06 02:10:32;;;;;;;24.67;12.20;;;;;;;1.61;100.00;101681.16;6162294;23;20036;-76
2023/04/06 02:13:02;;;;;;;32.33;13.90;;;;;;;1.81;100.00;101667.75;6162244;23;20505;-75
2023/04/06 02:15:28;;;;;;;28.45;13.23;;;;;;;1.47;100.00;101672.56;6161223;23;20075;-76
2023/04/06 02:17:54;;;;;;;25.40;13.27;;;;;;;1.70;100.00;101667.84;6161351;23;20013;-75
2023/04/06 02:20:20;;;;;;;29.98;13.15;;;;;;;1.44;100.00;101667.34;6160424;23;20008;-76
2023/04/06 02:22:46;;;;;;;25.77;12.93;;;;;;;1.37;100.00;101665.69;6158846;23;20349;-76
2023/04/06 02:25:11;;;;;;;22.67;11.07;;;;;;;1.24;100.00;101665.81;6160394;23;20016;-76
2023/04/06 02:27:38;;;;;;;25.05;12.15;;;;;;;1.35;100.00;101665.69;6166462;23;20023;-75
2023/04/06 02:30:08;;;;;;;25.58;12.48;;;;;;;1.28;100.00;101664.03;6164762;23;20017;-75
2023/04/06 02:32:35;;;;;;;27.98;13.05;;;;;;;1.54;100.00;101659.31;6162687;23;20020;-76
2023/04/06 02:35:01;;;;;;;28.40;12.13;;;;;;;1.40;100.00;101663.00;6160307;23;20021;-76
2023/04/06 02:37:34;;;;;;;25.55;12.93;;;;;;;1.38;100.00;101657.78;6136125;23;20016;-76
2023/04/06 02:40:06;;;;;;;25.40;12.15;;;;;;;1.35;100.00;101657.81;6161052;23;20083;-76
2023/04/06 02:42:32;;;;;;;28.08;12.27;;;;;;;1.23;100.00;101658.81;6162746;23;20016;-76
2023/04/06 02:44:58;;;;;;;27.27;13.18;;;;;;;1.00;100.00;101660.84;6162300;23;20824;-76
2023/04/06 02:47:28;;;;;;;25.35;11.82;;;;;;;0.89;100.00;101660.94;6162085;23;20022;-76
2023/04/06 02:49:54;;;;;;;19.95;11.02;;;;;;;0.78;100.00;101652.31;6166157;23;20089;-76
2023/04/06 02:52:20;;;;;;;27.88;12.00;;;;;;;1.25;100.00;101651.78;6174249;23;20069;-76
2023/04/06 02:54:45;;;;;;;23.63;11.32;;;;;;;1.21;100.00;101646.63;6167637;23;20075;-76
2023/04/06 02:57:11;;;;;;;26.95;11.43;;;;;;;1.19;100.00;101649.25;6161149;23;20037;-76
2023/04/06 02:59:41;;;;;;;23.67;10.98;;;;;;;1.38;100.00;101646.41;6162440;23;20012;-76
2023/04/06 03:02:15;;;;;;;24.33;11.25;;;;;;;1.12;100.00;101638.84;6158818;23;20012;-76
2023/04/06 03:04:45;;;;;;;21.02;10.45;;;;;;;0.92;100.00;101637.31;6159503;23;20016;-77
2023/04/06 03:07:20;;;;;;;24.23;12.27;;;;;;;0.98;100.00;101641.59;6162838;23;20059;-77
2023/04/06 03:09:45;;;;;;;26.85;11.93;;;;;;;1.19;100.00;101635.25;6163932;23;20095;-77
2023/04/06 03:12:11;;;;;;;24.05;12.40;;;;;;;1.17;100.00;101632.63;6163692;23;20023;-77
2023/04/06 03:15:00;;;;;;;22.10;11.57;;;;;;;1.31;100.00;101634.25;6157952;23;20024;-77
2023/04/06 03:17:26;;;;;;;24.63;12.85;;;;;;;1.39;100.00;101627.13;6165015;23;20017;-77
2023/04/06 03:19:56;;;;;;;23.55;12.43;;;;;;;1.39;100.00;101622.72;6165279;23;20092;-77
2023/04/06 03:22:22;;;;;;;29.27;14.88;;;;;;;1.11;100.00;101622.22;6164424;23;20427;-77
2023/04/06 03:24:48;;;;;;;25.42;12.10;;;;;;;0.84;100.00;101628.63;6164825;23;20013;-77
2023/04/06 03:27:14;;;;;;;20.67;11.13;;;;;;;0.38;100.00;101629.06;6164819;23;20020;-77
2023/04/06 03:29:40;;;;;;;27.85;11.25;;;;;;;0.65;100.00;101627.97;6163829;23;20023;-77
2023/04/06 03:32:10;;;;;;;20.50;11.00;;;;;;;0.88;100.00;101621.59;6167102;23;20040;-77
2023/04/06 03:34:39;;;;;;;18.73;10.18;;;;;;;1.08;100.00;101624.88;6169397;23;20522;-76
2023/04/06 03:37:06;;;;;;;19.67;10.40;;;;;;;1.04;100.00;101624.03;6170749;23;20017;-76
2023/04/06 03:39:32;;;;;;;23.48;12.02;;;;;;;1.07;100.00;101625.75;6164579;23;20479;-76
2023/04/06 03:42:00;;;;;;;18.83;10.07;;;;;;;1.09;100.00;101626.59;6165145;23;20017;-77
2023/04/06 03:44:33;;;;;;;22.48;10.98;;;;;;;1.23;100.00;101616.78;6137691;23;20017;-76
2023/04/06 03:46:58;;;;;;;23.25;11.85;;;;;;;1.24;100.00;101613.28;6168934;23;20055;-76
2023/04/06 03:49:25;;;;;;;27.73;11.63;;;;;;;1.34;100.00;101623.66;6164083;23;20517;-76
2023/04/06 03:51:53;;;;;;;25.95;12.52;;;;;;;1.43;100.00;101610.41;6166208;23;20017;-76
2023/04/06 03:54:33;;;;;;;21.98;10.65;;;;;;;1.16;100.00;101611.66;6163011;23;20123;-77
2023/04/06 03:57:18;;;;;;;20.40;10.35;;;;;;;1.19;100.00;101612.47;6163342;23;20092;-77
2023/04/06 03:59:43;;;;;;;27.30;10.80;;;;;;;1.19;100.00;101617.72;6169098;23;20761;-76
2023/04/06 04:02:09;;;;;;;23.40;10.63;;;;;;;1.01;100.00;101616.19;6163443;23;20020;-77
2023/04/06 04:04:35;;;;;;;24.15;11.52;;;;;;;0.98;100.00;101612.72;6166315;23;20067;-77
2023/04/06 04:07:00;;;;;;;24.95;11.85;;;;;;;0.94;100.00;101611.03;6182523;23;20741;-78
2023/04/06 04:09:25;;;;;;;24.77;10.65;;;;;;;0.93;100.00;101617.16;6188176;23;20446;-76
2023/04/06 04:11:51;;;;;;;24.95;11.95;;;;;;;0.97;100.00;101613.63;6191093;23;20325;-78
2023/04/06 04:14:17;;;;;;;22.70;10.32;;;;;;;1.05;100.00;101609.13;6188833;23;20426;-76
2023/04/06 04:16:42;;;;;;;25.30;11.27;;;;;;;1.09;100.00;101616.09;6191685;23;20028;-77
2023/04/06 04:19:08;;;;;;;23.02;11.18;;;;;;;1.00;100.00;101606.59;6190303;23;20024;-78
2023/04/06 04:21:34;;;;;;;29.75;13.68;;;;;;;0.96;100.00;101606.63;6191827;23;20078;-77
2023/04/06 04:24:06;;;;;;;23.67;11.32;;;;;;;0.95;100.00;101615.38;6190116;23;20015;-78
2023/04/06 04:26:34;;;;;;;24.15;11.43;;;;;;;0.79;100.00;101612.06;6190423;23;20012;-78
2023/04/06 04:28:59;;;;;;;25.00;12.38;;;;;;;0.90;100.00;101615.44;6191633;23;20017;-78
2023/04/06 04:31:25;;;;;;;22.15;11.05;;;;;;;0.92;100.00;101613.66;6190810;23;20023;-77
2023/04/06 04:33:55;;;;;;;25.20;12.38;;;;;;;0.97;100.00;101609.22;6190164;23;20017;-77
2023/04/06 04:36:27;;;;;;;25.67;12.13;;;;;;;0.68;100.00;101606.06;6189345;23;20027;-78
2023/04/06 04:38:54;;;;;;;27.60;12.27;;;;;;;0.84;100.00;101609.38;6188506;23;20829;-77
2023/04/06 04:41:20;;;;;;;25.85;12.05;;;;;;;0.87;100.00;101607.59;6188729;23;20130;-77
2023/04/06 04:43:47;;;;;;;25.30;11.32;;;;;;;0.92;100.00;101604.94;6188582;23;20277;-78
2023/04/06 04:46:15;;;;;;;22.85;11.90;;;;;;;1.05;100.00;101606.50;6192232;23;20513;-77
2023/04/06 04:48:42;;;;;;;23.65;12.07;;;;;;;1.04;100.00;101610.88;6187169;23;20017;-77
2023/04/06 04:51:08;;;;;;;27.10;11.90;;;;;;;1.20;100.00;101608.06;6187667;23;20016;-76
2023/04/06 04:53:56;;;;;;;22.42;11.77;;;;;;;1.21;100.00;101607.22;6182434;23;20012;-76
2023/04/06 04:56:27;;;;;;;27.52;12.23;;;;;;;1.24;100.00;101609.78;6184604;23;20020;-76
2023/04/06 04:58:58;;;;;;;24.90;12.00;;;;;;;1.09;100.00;101610.84;6185197;23;20016;-77
2023/04/06 05:01:26;;;;;;;22.52;11.30;;;;;;;1.23;100.00;101614.16;6160165;23;20099;-77
2023/04/06 05:03:52;;;;;;;35.65;13.38;;;;;;;1.45;100.00;101600.75;6185766;23;20042;-78
2023/04/06 05:06:18;;;;;;;27.75;13.45;;;;;;;1.40;100.00;101610.44;6187658;23;20012;-77
2023/04/06 05:08:44;;;;;;;28.80;13.50;;;;;;;1.59;100.00;101600.56;6189798;23;20141;-76
2023/04/06 05:11:10;;;;;;;26.30;12.68;;;;;;;1.54;100.00;101596.22;6187354;23;20719;-75
2023/04/06 05:13:40;;;;;;;30.13;11.73;;;;;;;1.55;100.00;101594.47;6183456;23;20008;-75
2023/04/06 05:16:12;;;;;;;27.95;12.98;;;;;;;1.62;100.00;101598.78;6182755;23;20047;-76
2023/04/06 05:18:37;;;;;;;23.02;11.77;;;;;;;1.77;100.00;101592.41;6188003;23;20013;-75
2023/04/06 05:21:04;;;;;;;24.73;12.05;;;;;;;1.77;100.00;101588.03;6186415;23;20016;-75
2023/04/06 05:23:38;;;;;;;28.58;13.43;;;;;;;2.05;100.00;101585.81;6186477;23;20009;-76
2023/04/06 05:26:04;;;;;;;32.72;12.70;;;;;;;2.06;100.00;101587.56;6161078;23;20558;-75
2023/04/06 05:28:32;;;;;;;31.80;12.70;;;;;;;2.15;100.00;101589.16;6187340;23;20034;-75
2023/04/06 05:30:57;;;;;;;28.63;13.65;;;;;;;2.29;100.00;101579.28;6184662;23;20016;-76
2023/04/06 05:33:26;;;;;;;29.02;13.23;;;;;;;2.11;100.00;101587.50;6158713;23;20024;-74
2023/04/06 05:36:10;;;;;;;29.02;13.57;;;;;;;2.03;100.00;101578.88;6161361;23;20121;-76
2023/04/06 05:38:40;;;;;;;26.88;12.55;;;;;;;2.40;100.00;101583.50;6185039;23;20035;-75
2023/04/06 05:41:16;;;;;;;30.00;13.77;;;;;;;2.80;100.00;101573.94;6180507;23;20102;-75
2023/04/06 05:43:42;;;;;;;31.00;13.32;;;;;;;2.86;100.00;101572.97;6185220;23;20024;-76
2023/04/06 05:46:07;;;;;;;24.15;12.77;;;;;;;2.93;100.00;101579.00;6183639;23;20035;-76
2023/04/06 05:48:33;;;;;;;29.23;12.60;;;;;;;3.35;100.00;101575.44;6155222;23;20020;-75
2023/04/06 05:51:00;;;;;;;26.13;12.50;;;;;;;3.46;100.00;101577.84;6155429;23;20732;-75
2023/04/06 05:53:34;;;;;;;33.40;12.80;;;;;;;3.76;100.00;101572.78;6157145;23;20020;-74
2023/04/06 05:56:03;;;;;;;26.85;13.50;;;;;;;4.14;100.00;101571.88;6184756;23;20012;-74
2023/04/06 05:58:29;;;;;;;23.25;12.85;;;;;;;4.30;98.85;101565.28;6181710;23;20027;-76
2023/04/06 06:01:02;;;;;;;28.67;13.52;;;;;;;4.48;96.38;101569.22;6179558;23;20012;-76
2023/04/06 06:03:36;;;;;;;29.02;12.65;;;;;;;4.84;97.26;101574.44;6165775;22;20805;-76
2023/04/06 06:06:05;;;;;;;28.15;13.23;;;;;;;5.19;92.83;101566.34;6155687;23;20079;-77
2023/04/06 06:08:39;;;;;;;28.05;13.15;;;;;;;5.33;87.59;101559.78;6185573;23;20027;-77
2023/04/06 06:11:11;;;;;;;30.23;12.88;;;;;;;5.30;88.73;101554.59;6190948;23;20095;-77
2023/04/06 06:13:37;;;;;;;28.35;14.50;;;;;;;5.27;89.48;101558.22;6190372;23;20028;-76
2023/04/06 06:16:05;;;;;;;29.80;12.70;;;;;;;5.43;92.82;101559.47;6191274;23;20020;-77
2023/04/06 06:18:36;;;;;;;25.10;12.23;;;;;;;5.36;89.11;101557.91;6191804;23;20130;-76
2023/04/06 06:21:09;;;;;;;31.25;15.05;;;;;;;5.62;84.38;101549.19;6192240;23;20024;-76
2023/04/06 06:23:42;;;;;;;23.52;12.05;;;;;;;5.86;82.00;101551.94;6190639;23;20680;-77
2023/04/06 06:26:08;;;;;;;26.75;13.15;;;;;;;6.41;80.84;101547.47;6187043;23;20012;-76
2023/04/06 06:28:38;;;;;;;28.27;14.13;;;;;;;6.53;81.02;101556.81;6189012;23;20118;-75
2023/04/06 06:31:07;;;;;;;26.98;12.85;;;;;;;6.09;80.22;101546.81;6188526;23;20017;-75
2023/04/06 06:33:35;;;;;;;22.98;12.18;;;;;;;6.34;80.69;101549.47;6186395;22;20036;-74
2023/04/06 06:36:01;;;;;;;26.50;13.10;;;;;;;7.01;79.65;101555.00;6191095;23;20017;-74
2023/04/06 06:38:26;;;;;;;25.65;12.88;;;;;;;7.81;75.73;101546.63;6186595;23;20111;-75
2023/04/06 06:40:52;;;;;;;27.17;12.45;;;;;;;8.52;74.80;101549.88;6187601;23;20812;-75
2023/04/06 06:43:19;;;;;;;27.40;12.55;;;;;;;8.44;72.29;101552.00;6185554;23;20017;-75
2023/04/06 06:45:54;;;;;;;29.23;13.13;;;;;;;8.75;71.20;101556.84;6163688;23;20013;-75
2023/04/06 06:48:19;;;;;;;26.63;13.55;;;;;;;8.30;71.30;101548.09;6185593;23;20061;-75
2023/04/06 06:50:48;;;;;;;23.73;13.13;;;;;;;8.23;71.25;101554.63;6184211;23;20009;-75
2023/04/06 06:53:13;;;;;;;30.88;14.27;;;;;;;8.03;71.19;101551.91;6182946;23;20642;-75
2023/04/06 06:55:39;;;;;;;29.85;14.10;;;;;;;8.03;70.40;101544.81;6183023;23;20016;-75
2023/04/06 06:58:05;;;;;;;32.67;13.55;;;;;;;8.28;70.78;101547.31;6182331;23;20023;-75
2023/04/06 07:00:31;;;;;;;24.23;12.77;;;;;;;8.45;70.55;101541.31;6184986;23;20120;-75
2023/04/06 07:02:57;;;;;;;29.15;13.20;;;;;;;8.76;69.48;101542.63;6183568;23;20008;-75
2023/04/06 07:05:22;;;;;;;27.20;13.73;;;;;;;9.03;69.93;101528.06;6186788;23;20021;-75
2023/04/06 07:07:48;;;;;;;26.48;13.48;;;;;;;9.78;67.93;101528.94;6186515;23;20012;-75
2023/04/06 07:10:14;;;;;;;29.27;13.30;;;;;;;9.73;65.27;101522.97;6188172;23;20043;-75
2023/04/06 07:12:39;;;;;;;30.67;13.30;;;;;;;10.00;64.26;101518.97;6187120;23;20016;-75
2023/04/06 07:15:06;;;;;;;24.30;13.52;;;;;;;9.92;61.81;101521.16;6192446;22;20024;-77
2023/04/06 07:17:33;;;;;;;30.17;14.13;;;;;;;10.29;60.96;101513.97;6161623;23;20043;-74
2023/04/06 07:19:59;;;;;;;27.30;13.20;;;;;;;10.94;59.63;101504.31;6187867;23;20020;-76
2023/04/06 07:22:25;;;;;;;26.65;14.23;;;;;;;10.81;59.90;101504.13;6162045;23;20564;-74
2023/04/06 07:24:52;;;;;;;23.98;14.35;;;;;;;10.35;59.63;101508.34;6160544;23;20056;-74
2023/04/06 07:27:18;;;;;;;29.92;14.82;;;;;;;10.30;60.16;101508.59;6187607;23;20016;-75
2023/04/06 07:29:44;;;;;;;27.05;13.63;;;;;;;10.43;58.10;101499.94;6185912;23;20020;-77
2023/04/06 07:32:10;;;;;;;29.40;13.75;;;;;;;10.30;58.20;101502.41;6160551;23;20044;-76
2023/04/06 07:34:36;;;;;;;30.60;14.25;;;;;;;10.53;59.32;101498.53;6132901;23;20027;-76
2023/04/06 07:37:02;;;;;;;27.88;15.00;;;;;;;10.71;59.27;101500.22;6156975;23;20394;-76
2023/04/06 07:39:28;;;;;;;29.42;14.77;;;;;;;10.72;56.72;101495.75;6156452;23;20013;-77
2023/04/06 07:41:55;;;;;;;30.15;14.77;;;;;;;10.83;56.83;101496.88;6157152;23;20012;-78
2023/04/06 07:44:21;;;;;;;28.75;14.80;;;;;;;11.26;56.36;101494.53;6151613;23;20754;-76
2023/04/06 07:46:47;;;;;;;26.40;14.00;;;;;;;11.61;54.62;101491.69;6153763;23;20674;-77
2023/04/06 07:49:13;;;;;;;29.73;14.35;;;;;;;11.05;54.64;101491.25;6155223;23;20095;-77
2023/04/06 07:51:39;;;;;;;26.73;13.98;;;;;;;11.27;54.77;101484.72;6157050;23;20439;-78
2023/04/06 07:54:05;;;;;;;29.60;15.52;;;;;;;11.74;54.52;101497.19;6156782;23;20638;-78
2023/04/06 07:56:31;;;;;;;24.88;12.93;;;;;;;11.87;53.93;101488.41;6155148;23;20025;-77
2023/04/06 07:58:57;;;;;;;26.17;13.43;;;;;;;12.09;54.32;101492.47;6156551;23;20040;-77
2023/04/06 08:01:23;;;;;;;28.15;14.90;;;;;;;12.29;53.24;101488.59;6158413;23;20582;-77
2023/04/06 08:03:50;;;;;;;27.95;14.20;;;;;;;11.95;54.21;101489.75;6159674;23;20448;-77
2023/04/06 08:06:16;;;;;;;30.38;14.75;;;;;;;12.63;52.99;101487.44;6159454;23;20028;-77
2023/04/06 08:08:42;;;;;;;22.92;13.38;;;;;;;12.36;53.81;101484.63;6159433;23;20073;-77
2023/04/06 08:11:08;;;;;;;30.77;15.18;;;;;;;12.69;52.68;101495.91;6159403;23;20601;-77
2023/04/06 08:13:35;;;;;;;32.53;15.00;;;;;;;12.59;51.61;101493.91;6156334;23;20013;-77
2023/04/06 08:16:00;;;;;;;26.85;14.02;;;;;;;11.77;53.87;101494.34;6152349;23;20144;-78
2023/04/06 08:18:26;;;;;;;25.35;14.50;;;;;;;12.23;53.20;101494.34;6157594;23;20103;-78
2023/04/06 08:20:51;;;;;;;27.48;14.45;;;;;;;11.47;55.01;101495.13;6155489;23;20012;-76
2023/04/06 08:23:17;;;;;;;22.20;12.90;;;;;;;10.89;55.03;101493.00;6154697;23;20559;-75
2023/04/06 08:25:43;;;;;;;29.58;15.15;;;;;;;11.65;54.94;101488.75;6154079;23;20047;-75
2023/04/06 08:28:09;;;;;;;30.20;15.93;;;;;;;11.68;55.16;101493.91;6153170;23;20633;-77
2023/04/06 08:30:35;;;;;;;32.50;15.43;;;;;;;11.97;55.13;101496.75;6157336;23;20111;-76
2023/04/06 08:33:00;;;;;;;31.70;15.85;;;;;;;11.81;55.50;101486.06;6154899;23;20218;-78
2023/04/06 08:35:27;;;;;;;28.17;15.30;;;;;;;11.78;54.00;101485.38;6180806;23;20016;-76
2023/04/06 08:37:52;;;;;;;28.75;16.48;;;;;;;11.56;55.89;101485.75;6158334;23;20028;-76
2023/04/06 08:40:18;;;;;;;32.33;15.00;;;;;;;11.88;54.57;101476.75;6181439;23;20032;-76
2023/04/06 08:42:51;;;;;;;27.30;15.20;;;;;;;12.08;54.98;101483.59;6186033;23;20044;-77
2023/04/06 08:45:20;;;;;;;30.30;15.90;;;;;;;11.77;55.19;101476.50;6187124;23;20032;-76
2023/04/06 08:47:53;;;;;;;31.23;16.08;;;;;;;11.50;54.53;101478.09;6187655;23;20733;-76
2023/04/06 08:50:19;;;;;;;28.67;16.30;;;;;;;12.12;55.13;101481.59;6187190;23;20013;-77
2023/04/06 08:52:48;;;;;;;30.80;15.10;;;;;;;12.14;54.18;101475.19;6186129;23;20063;-77
2023/04/06 08:55:14;;;;;;;29.98;15.52;;;;;;;11.61;54.45;101476.53;6183148;23;20075;-75
2023/04/06 08:57:41;;;;;;;36.05;16.70;;;;;;;11.78;55.46;101467.53;6182531;23;20079;-75
2023/04/06 09:00:09;;;;;;;34.28;16.25;;;;;;;11.62;54.66;101474.72;6182474;23;20012;-76
2023/04/06 09:02:40;;;;;;;30.52;14.98;;;;;;;11.78;55.01;101477.34;6160538;23;20012;-75
2023/04/06 09:05:09;;;;;;;27.45;13.98;;;;;;;12.21;55.65;101475.72;6186851;23;20066;-77
2023/04/06 09:07:36;;;;;;;28.33;14.77;;;;;;;12.51;53.87;101473.00;6184810;23;20454;-75
2023/04/06 09:10:02;;;;;;;32.03;17.48;;;;;;;12.33;55.17;101477.63;6184037;23;20312;-76
2023/04/06 09:12:29;;;;;;;29.92;15.20;;;;;;;12.61;55.01;101487.53;6184443;23;20012;-75
2023/04/06 09:14:56;;;;;;;27.60;14.93;;;;;;;12.62;53.51;101488.38;6184730;23;20019;-75
2023/04/06 09:17:26;;;;;;;27.67;16.13;;;;;;;13.00;53.53;101480.63;6183204;23;20028;-76
2023/04/06 09:19:52;;;;;;;31.33;16.63;;;;;;;13.08;53.53;101478.31;6183705;23;20043;-75
2023/04/06 09:22:19;;;;;;;33.22;16.63;;;;;;;13.12;54.12;101482.53;6184229;23;20008;-75
2023/04/06 09:24:48;;;;;;;30.30;15.07;;;;;;;13.54;53.86;101470.03;6186149;23;20481;-76
2023/04/06 09:27:14;;;;;;;33.03;15.60;;;;;;;13.95;51.96;101471.75;6184316;23;20025;-77
2023/04/06 09:29:45;;;;;;;28.45;15.52;;;;;;;14.14;52.59;101466.88;6185221;23;20012;-76
2023/04/06 09:32:11;;;;;;;27.40;15.80;;;;;;;14.18;51.48;101463.03;6183807;23;20015;-77
2023/04/06 09:34:40;;;;;;;24.70;14.10;;;;;;;14.07;51.93;101467.41;6158452;23;20720;-77
2023/04/06 09:37:17;;;;;;;22.83;13.63;;;;;;;12.96;51.59;101463.91;6187160;23;20073;-76
2023/04/06 09:39:44;;;;;;;30.30;15.15;;;;;;;13.42;52.53;101465.47;6187401;23;20059;-75
2023/04/06 09:42:09;;;;;;;26.55;14.45;;;;;;;13.57;52.07;101461.78;6184959;23;20036;-76
2023/04/06 09:44:35;;;;;;;28.83;15.63;;;;;;;14.25;50.91;101450.91;6186831;23;20048;-75
2023/04/06 09:47:06;;;;;;;28.80;14.77;;;;;;;14.49;51.14;101458.25;6161222;23;20017;-76
2023/04/06 09:49:33;;;;;;;30.08;16.20;;;;;;;14.50;51.20;101454.59;6184988;23;20013;-76
2023/04/06 09:52:11;;;;;;;28.65;15.80;;;;;;;14.43;50.93;101453.28;6184280;23;20012;-75
2023/04/06 09:54:38;;;;;;;29.75;14.57;;;;;;;14.41;51.32;101455.22;6156010;23;20012;-74
2023/04/06 09:57:27;;;;;;;31.13;14.75;;;;;;;14.66;50.54;101454.38;6181862;23;20067;-76
2023/04/06 10:00:11;;;;;;;27.42;17.20;;;;;;;14.33;50.93;101454.88;6183497;23;20013;-75
2023/04/06 10:02:48;;;;;;;32.13;17.52;;;;;;;14.11;50.52;101458.19;6189261;22;20628;-74
2023/04/06 10:05:25;;;;;;;28.88;14.23;;;;;;;13.93;51.86;101455.78;6156172;23;20021;-74
2023/04/06 10:07:55;;;;;;;29.63;16.52;;;;;;;14.37;50.99;101449.22;6182587;23;20016;-75
2023/04/06 10:10:21;;;;;;;29.52;15.90;;;;;;;14.12;51.36;101452.72;6183165;23;20012;-74
2023/04/06 10:12:49;;;;;;;29.15;16.13;;;;;;;14.50;50.26;101451.91;6185706;23;20051;-74
2023/04/06 10:15:16;;;;;;;28.48;15.30;;;;;;;14.09;50.01;101452.06;6160054;23;20129;-73
2023/04/06 10:17:41;;;;;;;28.83;15.63;;;;;;;14.43;50.83;101454.13;6160010;23;20436;-74
2023/04/06 10:20:23;;;;;;;35.85;17.08;;;;;;;14.58;51.26;101451.38;6186756;23;20529;-74
2023/04/06 10:22:56;;;;;;;30.80;17.33;;;;;;;14.06;50.88;101454.97;6186106;23;20012;-74
2023/04/06 10:25:32;;;;;;;32.55;16.25;;;;;;;14.23;51.24;101457.34;6187533;23;20019;-74
2023/04/06 10:28:06;;;;;;;30.60;16.50;;;;;;;14.21;50.54;101456.59;6162188;23;20021;-74
2023/04/06 10:30:33;;;;;;;32.13;15.88;;;;;;;14.57;50.98;101458.59;6187650;23;20091;-74
2023/04/06 10:33:00;;;;;;;29.95;16.05;;;;;;;14.40;49.67;101459.72;6157478;23;20016;-73
2023/04/06 10:35:37;;;;;;;41.38;17.77;;;;;;;14.73;50.28;101455.66;6157345;23;20103;-74
2023/04/06 10:38:05;;;;;;;35.25;16.00;;;;;;;14.36;51.40;101460.06;6185314;23;20103;-74
2023/04/06 10:40:34;;;;;;;27.95;15.25;;;;;;;14.65;50.89;101453.50;6155701;23;20008;-74
2023/04/06 10:43:18;;;;;;;32.92;16.48;;;;;;;14.04;50.40;101451.53;6185601;23;20023;-75
2023/04/06 10:45:44;;;;;;;36.03;15.80;;;;;;;14.40;50.34;101459.72;6183997;23;20048;-76
2023/04/06 10:48:18;;;;;;;26.73;13.15;;;;;;;14.34;47.75;101461.97;6180877;23;20047;-75
2023/04/06 10:50:45;;;;;;;26.48;14.10;;;;;;;14.31;46.78;101452.31;6186378;23;20016;-76
2023/04/06 10:53:11;;;;;;;31.05;13.93;;;;;;;14.15;49.15;101455.19;6190599;23;20012;-76
2023/04/06 10:55:40;;;;;;;26.95;14.70;;;;;;;14.20;49.01;101457.53;6157889;23;20017;-76
2023/04/06 10:58:07;;;;;;;30.73;13.55;;;;;;;14.50;47.60;101454.59;6184445;23;20111;-76
2023/04/06 11:00:33;;;;;;;26.27;13.82;;;;;;;14.25;48.37;101448.22;6183522;23;20047;-76
2023/04/06 11:03:00;;;;;;;29.15;13.98;;;;;;;14.88;48.45;101449.19;6181524;23;20016;-76
2023/04/06 11:05:26;;;;;;;28.30;13.80;;;;;;;14.36;49.87;101452.88;6181709;23;20231;-75
2023/04/06 11:07:51;;;;;;;30.30;15.98;;;;;;;14.41;50.39;101457.91;6185194;23;20020;-75
2023/04/06 11:10:23;;;;;;;28.40;15.20;;;;;;;14.65;50.28;101455.34;6160002;23;20019;-76
2023/04/06 11:12:54;;;;;;;30.77;13.35;;;;;;;14.33;51.40;101457.56;6187979;23;20016;-76
2023/04/06 11:15:20;;;;;;;31.02;16.02;;;;;;;14.58;51.35;101454.94;6187666;23;20024;-76